sensor_id;sensor_type;location;lat;lon;timestamp;P1;durP1;ratioP1;P2;durP2;ratioP2
9689;SDS011;4884;42.614;23.340;2023-01-25T00:01:20;14.30;;;9.23;;
9689;SDS011;4884;42.614;23.340;2023-01-25T00:03:45;14.20;;;9.53;;
9689;SDS011;4884;42.614;23.340;2023-01-25T00:06:10;12.63;;;8.20;;
9689;SDS011;4884;42.614;23.340;2023-01-25T00:08:36;11.97;;;8.63;;
9689;SDS011;4884;42.614;23.340;2023-01-25T00:11:02;11.43;;;8.00;;
9689;SDS011;4884;42.614;23.340;2023-01-25T00:13:28;15.10;;;9.13;;
9689;SDS011;4884;42.614;23.340;2023-01-25T00:15:59;14.93;;;9.43;;
9689;SDS011;4884;42.614;23.340;2023-01-25T00:18:25;14.00;;;9.13;;
9689;SDS011;4884;42.614;23.340;2023-01-25T00:20:51;11.50;;;8.17;;
9689;SDS011;4884;42.614;23.340;2023-01-25T00:23:16;12.80;;;8.33;;
9689;SDS011;4884;42.614;23.340;2023-01-25T00:25:41;13.60;;;8.67;;
9689;SDS011;4884;42.614;23.340;2023-01-25T00:28:07;13.20;;;8.50;;
9689;SDS011;4884;42.614;23.340;2023-01-25T00:30:32;16.87;;;9.00;;
9689;SDS011;4884;42.614;23.340;2023-01-25T00:33:01;15.27;;;10.07;;
9689;SDS011;4884;42.614;23.340;2023-01-25T00:35:31;12.83;;;9.47;;
9689;SDS011;4884;42.614;23.340;2023-01-25T00:38:00;14.80;;;9.43;;
9689;SDS011;4884;42.614;23.340;2023-01-25T00:40:26;14.67;;;9.47;;
9689;SDS011;4884;42.614;23.340;2023-01-25T00:42:51;13.93;;;9.23;;
9689;SDS011;4884;42.614;23.340;2023-01-25T00:45:17;18.13;;;11.20;;
9689;SDS011;4884;42.614;23.340;2023-01-25T00:47:43;14.27;;;10.33;;
9689;SDS011;4884;42.614;23.340;2023-01-25T00:50:08;18.77;;;10.03;;
9689;SDS011;4884;42.614;23.340;2023-01-25T00:52:34;18.43;;;10.53;;
9689;SDS011;4884;42.614;23.340;2023-01-25T00:55:00;17.83;;;10.47;;
9689;SDS011;4884;42.614;23.340;2023-01-25T00:57:25;17.87;;;11.40;;
9689;SDS011;4884;42.614;23.340;2023-01-25T00:59:51;22.67;;;10.90;;
9689;SDS011;4884;42.614;23.340;2023-01-25T01:02:16;18.13;;;10.30;;
9689;SDS011;4884;42.614;23.340;2023-01-25T01:04:41;14.33;;;9.73;;
9689;SDS011;4884;42.614;23.340;2023-01-25T01:07:07;17.87;;;10.17;;
9689;SDS011;4884;42.614;23.340;2023-01-25T01:09:32;16.90;;;9.77;;
9689;SDS011;4884;42.614;23.340;2023-01-25T01:11:57;25.47;;;10.37;;
9689;SDS011;4884;42.614;23.340;2023-01-25T01:14:23;18.77;;;10.87;;
9689;SDS011;4884;42.614;23.340;2023-01-25T01:16:48;16.70;;;10.77;;
9689;SDS011;4884;42.614;23.340;2023-01-25T01:19:14;20.63;;;10.67;;
9689;SDS011;4884;42.614;23.340;2023-01-25T01:21:39;14.27;;;9.73;;
9689;SDS011;4884;42.614;23.340;2023-01-25T01:24:05;15.17;;;9.60;;
9689;SDS011;4884;42.614;23.340;2023-01-25T01:26:32;14.43;;;9.17;;
9689;SDS011;4884;42.614;23.340;2023-01-25T01:28:57;14.37;;;9.50;;
9689;SDS011;4884;42.614;23.340;2023-01-25T01:31:23;11.73;;;9.17;;
9689;SDS011;4884;42.614;23.340;2023-01-25T01:33:49;11.90;;;8.60;;
9689;SDS011;4884;42.614;23.340;2023-01-25T01:36:17;13.87;;;8.30;;
9689;SDS011;4884;42.614;23.340;2023-01-25T01:38:43;13.97;;;8.60;;
9689;SDS011;4884;42.614;23.340;2023-01-25T01:41:10;15.43;;;9.27;;
9689;SDS011;4884;42.614;23.340;2023-01-25T01:43:35;13.00;;;7.67;;
9689;SDS011;4884;42.614;23.340;2023-01-25T01:46:05;12.60;;;7.90;;
9689;SDS011;4884;42.614;23.340;2023-01-25T01:51:45;11.40;;;7.27;;
9689;SDS011;4884;42.614;23.340;2023-01-25T01:56:53;11.10;;;8.50;;
9689;SDS011;4884;42.614;23.340;2023-01-25T01:59:22;15.30;;;8.23;;
9689;SDS011;4884;42.614;23.340;2023-01-25T02:01:52;16.90;;;8.07;;
9689;SDS011;4884;42.614;23.340;2023-01-25T02:04:18;14.80;;;8.50;;
9689;SDS011;4884;42.614;23.340;2023-01-25T02:07:28;15.20;;;7.97;;
9689;SDS011;4884;42.614;23.340;2023-01-25T02:09:35;47.60;;;10.70;;
9689;SDS011;4884;42.614;23.340;2023-01-25T02:12:02;23.23;;;9.23;;
9689;SDS011;4884;42.614;23.340;2023-01-25T02:14:28;18.40;;;8.43;;
9689;SDS011;4884;42.614;23.340;2023-01-25T02:16:54;28.70;;;9.67;;
9689;SDS011;4884;42.614;23.340;2023-01-25T02:19:24;10.60;;;7.73;;
9689;SDS011;4884;42.614;23.340;2023-01-25T02:22:12;9.67;;;6.87;;
9689;SDS011;4884;42.614;23.340;2023-01-25T02:24:41;12.27;;;7.77;;
9689;SDS011;4884;42.614;23.340;2023-01-25T02:27:10;11.40;;;7.53;;
9689;SDS011;4884;42.614;23.340;2023-01-25T02:29:35;9.00;;;6.63;;
9689;SDS011;4884;42.614;23.340;2023-01-25T02:32:01;8.03;;;5.70;;
9689;SDS011;4884;42.614;23.340;2023-01-25T02:34:28;13.17;;;6.10;;
9689;SDS011;4884;42.614;23.340;2023-01-25T02:36:54;7.87;;;5.33;;
9689;SDS011;4884;42.614;23.340;2023-01-25T02:39:19;9.40;;;5.83;;
9689;SDS011;4884;42.614;23.340;2023-01-25T02:41:45;10.47;;;5.70;;
9689;SDS011;4884;42.614;23.340;2023-01-25T02:44:22;7.83;;;4.97;;
9689;SDS011;4884;42.614;23.340;2023-01-25T02:46:49;8.73;;;6.07;;
9689;SDS011;4884;42.614;23.340;2023-01-25T02:49:14;7.63;;;5.40;;
9689;SDS011;4884;42.614;23.340;2023-01-25T02:51:41;8.13;;;5.17;;
9689;SDS011;4884;42.614;23.340;2023-01-25T02:54:09;6.53;;;4.97;;
9689;SDS011;4884;42.614;23.340;2023-01-25T02:56:36;6.30;;;4.53;;
9689;SDS011;4884;42.614;23.340;2023-01-25T02:59:04;6.77;;;4.97;;
9689;SDS011;4884;42.614;23.340;2023-01-25T03:01:34;7.20;;;5.23;;
9689;SDS011;4884;42.614;23.340;2023-01-25T03:04:00;6.37;;;4.50;;
9689;SDS011;4884;42.614;23.340;2023-01-25T03:06:26;6.67;;;4.57;;
9689;SDS011;4884;42.614;23.340;2023-01-25T03:08:51;5.87;;;4.00;;
9689;SDS011;4884;42.614;23.340;2023-01-25T03:11:16;4.40;;;3.40;;
9689;SDS011;4884;42.614;23.340;2023-01-25T03:13:42;7.07;;;3.87;;
9689;SDS011;4884;42.614;23.340;2023-01-25T03:16:09;5.50;;;4.20;;
9689;SDS011;4884;42.614;23.340;2023-01-25T03:18:36;3.63;;;3.03;;
9689;SDS011;4884;42.614;23.340;2023-01-25T03:23:31;5.77;;;3.67;;
9689;SDS011;4884;42.614;23.340;2023-01-25T03:26:30;6.50;;;4.60;;
9689;SDS011;4884;42.614;23.340;2023-01-25T03:28:49;5.10;;;3.80;;
9689;SDS011;4884;42.614;23.340;2023-01-25T03:31:15;5.57;;;4.17;;
9689;SDS011;4884;42.614;23.340;2023-01-25T03:33:41;5.20;;;4.10;;
9689;SDS011;4884;42.614;23.340;2023-01-25T03:36:06;6.17;;;4.67;;
9689;SDS011;4884;42.614;23.340;2023-01-25T03:38:32;29.90;;;16.03;;
9689;SDS011;4884;42.614;23.340;2023-01-25T03:41:00;7.47;;;4.20;;
9689;SDS011;4884;42.614;23.340;2023-01-25T03:43:26;4.97;;;3.73;;
9689;SDS011;4884;42.614;23.340;2023-01-25T03:45:52;5.30;;;4.20;;
9689;SDS011;4884;42.614;23.340;2023-01-25T03:48:19;7.33;;;4.37;;
9689;SDS011;4884;42.614;23.340;2023-01-25T03:50:49;5.60;;;4.33;;
9689;SDS011;4884;42.614;23.340;2023-01-25T03:53:23;6.23;;;4.43;;
9689;SDS011;4884;42.614;23.340;2023-01-25T03:58:25;6.00;;;3.77;;
9689;SDS011;4884;42.614;23.340;2023-01-25T04:00:50;7.73;;;4.47;;
9689;SDS011;4884;42.614;23.340;2023-01-25T04:03:18;6.80;;;4.80;;
9689;SDS011;4884;42.614;23.340;2023-01-25T04:05:45;8.93;;;5.47;;
9689;SDS011;4884;42.614;23.340;2023-01-25T04:08:11;7.83;;;4.87;;
9689;SDS011;4884;42.614;23.340;2023-01-25T04:10:36;7.37;;;4.93;;
9689;SDS011;4884;42.614;23.340;2023-01-25T04:13:01;7.63;;;4.87;;
9689;SDS011;4884;42.614;23.340;2023-01-25T04:15:27;5.87;;;4.30;;
9689;SDS011;4884;42.614;23.340;2023-01-25T04:17:52;7.17;;;4.50;;
9689;SDS011;4884;42.614;23.340;2023-01-25T04:20:17;7.70;;;4.97;;
9689;SDS011;4884;42.614;23.340;2023-01-25T04:22:43;6.53;;;3.97;;
9689;SDS011;4884;42.614;23.340;2023-01-25T04:25:08;5.13;;;3.80;;
9689;SDS011;4884;42.614;23.340;2023-01-25T04:27:34;6.93;;;4.63;;
9689;SDS011;4884;42.614;23.340;2023-01-25T04:29:59;9.50;;;5.03;;
9689;SDS011;4884;42.614;23.340;2023-01-25T04:32:24;6.87;;;5.10;;
9689;SDS011;4884;42.614;23.340;2023-01-25T04:34:50;6.67;;;4.23;;
9689;SDS011;4884;42.614;23.340;2023-01-25T04:37:15;7.30;;;5.07;;
9689;SDS011;4884;42.614;23.340;2023-01-25T04:39:40;6.53;;;4.97;;
9689;SDS011;4884;42.614;23.340;2023-01-25T04:42:06;5.50;;;3.90;;
9689;SDS011;4884;42.614;23.340;2023-01-25T04:44:31;7.83;;;4.97;;
9689;SDS011;4884;42.614;23.340;2023-01-25T04:46:56;7.87;;;4.80;;
9689;SDS011;4884;42.614;23.340;2023-01-25T04:49:22;9.07;;;4.60;;
9689;SDS011;4884;42.614;23.340;2023-01-25T04:51:47;5.57;;;4.37;;
9689;SDS011;4884;42.614;23.340;2023-01-25T04:54:13;6.17;;;4.27;;
9689;SDS011;4884;42.614;23.340;2023-01-25T04:56:38;7.93;;;4.90;;
9689;SDS011;4884;42.614;23.340;2023-01-25T04:59:04;8.70;;;5.77;;
9689;SDS011;4884;42.614;23.340;2023-01-25T05:01:29;4.90;;;3.93;;
9689;SDS011;4884;42.614;23.340;2023-01-25T05:03:57;6.70;;;4.57;;
9689;SDS011;4884;42.614;23.340;2023-01-25T05:06:22;6.50;;;4.00;;
9689;SDS011;4884;42.614;23.340;2023-01-25T05:08:48;6.23;;;4.77;;
9689;SDS011;4884;42.614;23.340;2023-01-25T05:11:13;6.53;;;4.33;;
9689;SDS011;4884;42.614;23.340;2023-01-25T05:13:39;5.83;;;4.50;;
9689;SDS011;4884;42.614;23.340;2023-01-25T05:16:04;5.67;;;4.40;;
9689;SDS011;4884;42.614;23.340;2023-01-25T05:18:30;6.67;;;5.03;;
9689;SDS011;4884;42.614;23.340;2023-01-25T05:20:55;8.47;;;5.23;;
9689;SDS011;4884;42.614;23.340;2023-01-25T05:23:20;5.87;;;4.30;;
9689;SDS011;4884;42.614;23.340;2023-01-25T05:25:46;7.20;;;4.70;;
9689;SDS011;4884;42.614;23.340;2023-01-25T05:28:30;7.50;;;4.53;;
9689;SDS011;4884;42.614;23.340;2023-01-25T05:30:55;9.33;;;5.40;;
9689;SDS011;4884;42.614;23.340;2023-01-25T05:33:21;8.67;;;5.20;;
9689;SDS011;4884;42.614;23.340;2023-01-25T05:35:46;8.27;;;5.30;;
9689;SDS011;4884;42.614;23.340;2023-01-25T05:38:11;9.17;;;5.27;;
9689;SDS011;4884;42.614;23.340;2023-01-25T05:40:37;7.77;;;5.27;;
9689;SDS011;4884;42.614;23.340;2023-01-25T05:43:02;8.37;;;5.37;;
9689;SDS011;4884;42.614;23.340;2023-01-25T05:45:28;6.20;;;4.47;;
9689;SDS011;4884;42.614;23.340;2023-01-25T05:47:57;7.37;;;5.43;;
9689;SDS011;4884;42.614;23.340;2023-01-25T05:50:23;8.03;;;5.40;;
9689;SDS011;4884;42.614;23.340;2023-01-25T05:52:49;7.40;;;5.80;;
9689;SDS011;4884;42.614;23.340;2023-01-25T05:55:15;8.13;;;6.57;;
9689;SDS011;4884;42.614;23.340;2023-01-25T05:57:41;8.60;;;5.63;;
9689;SDS011;4884;42.614;23.340;2023-01-25T06:00:07;11.17;;;6.30;;
9689;SDS011;4884;42.614;23.340;2023-01-25T06:02:33;9.23;;;5.77;;
9689;SDS011;4884;42.614;23.340;2023-01-25T06:04:58;10.03;;;5.87;;
9689;SDS011;4884;42.614;23.340;2023-01-25T06:07:24;8.37;;;6.27;;
9689;SDS011;4884;42.614;23.340;2023-01-25T06:09:49;11.43;;;7.27;;
9689;SDS011;4884;42.614;23.340;2023-01-25T06:12:15;13.97;;;8.23;;
9689;SDS011;4884;42.614;23.340;2023-01-25T06:14:40;10.70;;;6.87;;
9689;SDS011;4884;42.614;23.340;2023-01-25T06:17:06;11.17;;;7.63;;
9689;SDS011;4884;42.614;23.340;2023-01-25T06:19:32;11.30;;;7.60;;
9689;SDS011;4884;42.614;23.340;2023-01-25T06:21:58;11.30;;;7.37;;
9689;SDS011;4884;42.614;23.340;2023-01-25T06:24:23;9.80;;;6.97;;
9689;SDS011;4884;42.614;23.340;2023-01-25T06:26:48;9.20;;;6.37;;
9689;SDS011;4884;42.614;23.340;2023-01-25T06:29:14;13.43;;;8.20;;
9689;SDS011;4884;42.614;23.340;2023-01-25T06:31:39;10.13;;;6.57;;
9689;SDS011;4884;42.614;23.340;2023-01-25T06:34:04;13.43;;;7.97;;
9689;SDS011;4884;42.614;23.340;2023-01-25T06:36:32;14.10;;;7.57;;
9689;SDS011;4884;42.614;23.340;2023-01-25T06:38:57;12.73;;;7.97;;
9689;SDS011;4884;42.614;23.340;2023-01-25T06:41:22;10.13;;;5.97;;
9689;SDS011;4884;42.614;23.340;2023-01-25T06:43:51;7.93;;;6.50;;
9689;SDS011;4884;42.614;23.340;2023-01-25T06:46:17;8.63;;;6.40;;
9689;SDS011;4884;42.614;23.340;2023-01-25T06:48:42;9.03;;;6.13;;
9689;SDS011;4884;42.614;23.340;2023-01-25T06:51:09;13.40;;;7.70;;
9689;SDS011;4884;42.614;23.340;2023-01-25T06:53:36;9.47;;;7.80;;
9689;SDS011;4884;42.614;23.340;2023-01-25T06:56:05;13.43;;;10.27;;
9689;SDS011;4884;42.614;23.340;2023-01-25T06:58:33;11.60;;;8.13;;
9689;SDS011;4884;42.614;23.340;2023-01-25T07:00:59;12.00;;;8.60;;
9689;SDS011;4884;42.614;23.340;2023-01-25T07:03:26;13.43;;;7.87;;
9689;SDS011;4884;42.614;23.340;2023-01-25T07:05:55;11.77;;;7.97;;
9689;SDS011;4884;42.614;23.340;2023-01-25T07:08:25;13.33;;;9.30;;
9689;SDS011;4884;42.614;23.340;2023-01-25T07:10:54;14.37;;;10.10;;
9689;SDS011;4884;42.614;23.340;2023-01-25T07:13:21;13.87;;;8.97;;
9689;SDS011;4884;42.614;23.340;2023-01-25T07:15:57;14.07;;;9.03;;
9689;SDS011;4884;42.614;23.340;2023-01-25T07:18:23;18.33;;;12.83;;
9689;SDS011;4884;42.614;23.340;2023-01-25T07:20:50;13.13;;;9.50;;
9689;SDS011;4884;42.614;23.340;2023-01-25T07:23:16;23.73;;;10.00;;
9689;SDS011;4884;42.614;23.340;2023-01-25T07:25:43;25.37;;;10.77;;
9689;SDS011;4884;42.614;23.340;2023-01-25T07:28:14;19.63;;;9.47;;
9689;SDS011;4884;42.614;23.340;2023-01-25T07:30:40;19.93;;;10.53;;
9689;SDS011;4884;42.614;23.340;2023-01-25T07:33:06;18.27;;;10.43;;
9689;SDS011;4884;42.614;23.340;2023-01-25T07:35:32;24.77;;;16.83;;
9689;SDS011;4884;42.614;23.340;2023-01-25T07:37:57;20.23;;;12.67;;
9689;SDS011;4884;42.614;23.340;2023-01-25T07:40:23;19.63;;;13.27;;
9689;SDS011;4884;42.614;23.340;2023-01-25T07:42:51;16.43;;;11.13;;
9689;SDS011;4884;42.614;23.340;2023-01-25T07:45:17;19.37;;;11.90;;
9689;SDS011;4884;42.614;23.340;2023-01-25T07:47:43;18.70;;;13.27;;
9689;SDS011;4884;42.614;23.340;2023-01-25T07:50:08;22.23;;;14.20;;
9689;SDS011;4884;42.614;23.340;2023-01-25T07:52:34;16.60;;;11.90;;
9689;SDS011;4884;42.614;23.340;2023-01-25T07:55:00;19.43;;;11.43;;
9689;SDS011;4884;42.614;23.340;2023-01-25T07:57:25;26.63;;;16.90;;
9689;SDS011;4884;42.614;23.340;2023-01-25T07:59:52;19.10;;;12.97;;
9689;SDS011;4884;42.614;23.340;2023-01-25T08:02:17;20.93;;;13.10;;
9689;SDS011;4884;42.614;23.340;2023-01-25T08:04:43;25.47;;;13.43;;
9689;SDS011;4884;42.614;23.340;2023-01-25T08:07:09;18.63;;;10.83;;
9689;SDS011;4884;42.614;23.340;2023-01-25T08:09:34;21.00;;;12.73;;
9689;SDS011;4884;42.614;23.340;2023-01-25T08:12:00;27.90;;;14.90;;
9689;SDS011;4884;42.614;23.340;2023-01-25T08:14:25;19.20;;;12.20;;
9689;SDS011;4884;42.614;23.340;2023-01-25T08:16:50;25.83;;;12.97;;
9689;SDS011;4884;42.614;23.340;2023-01-25T08:19:16;20.73;;;11.83;;
9689;SDS011;4884;42.614;23.340;2023-01-25T08:21:44;30.47;;;16.10;;
9689;SDS011;4884;42.614;23.340;2023-01-25T08:24:09;29.93;;;14.37;;
9689;SDS011;4884;42.614;23.340;2023-01-25T08:26:35;27.47;;;15.33;;
9689;SDS011;4884;42.614;23.340;2023-01-25T08:29:01;33.83;;;16.77;;
9689;SDS011;4884;42.614;23.340;2023-01-25T08:31:28;37.03;;;20.60;;
9689;SDS011;4884;42.614;23.340;2023-01-25T08:33:55;34.97;;;18.20;;
9689;SDS011;4884;42.614;23.340;2023-01-25T08:36:21;32.73;;;14.53;;
9689;SDS011;4884;42.614;23.340;2023-01-25T08:38:52;29.83;;;14.70;;
9689;SDS011;4884;42.614;23.340;2023-01-25T08:41:22;35.07;;;18.17;;
9689;SDS011;4884;42.614;23.340;2023-01-25T08:43:49;28.70;;;16.40;;
9689;SDS011;4884;42.614;23.340;2023-01-25T08:46:16;22.23;;;13.43;;
9689;SDS011;4884;42.614;23.340;2023-01-25T08:48:42;22.80;;;14.47;;
9689;SDS011;4884;42.614;23.340;2023-01-25T08:51:08;27.20;;;15.00;;
9689;SDS011;4884;42.614;23.340;2023-01-25T08:53:35;23.80;;;15.63;;
9689;SDS011;4884;42.614;23.340;2023-01-25T08:56:01;27.97;;;16.77;;
9689;SDS011;4884;42.614;23.340;2023-01-25T08:58:28;30.70;;;19.90;;
9689;SDS011;4884;42.614;23.340;2023-01-25T09:00:53;22.83;;;16.93;;
9689;SDS011;4884;42.614;23.340;2023-01-25T09:03:25;29.07;;;18.13;;
9689;SDS011;4884;42.614;23.340;2023-01-25T09:05:52;26.70;;;17.30;;
9689;SDS011;4884;42.614;23.340;2023-01-25T09:08:17;26.30;;;17.27;;
9689;SDS011;4884;42.614;23.340;2023-01-25T09:10:43;21.60;;;16.10;;
9689;SDS011;4884;42.614;23.340;2023-01-25T09:13:08;22.27;;;17.07;;
9689;SDS011;4884;42.614;23.340;2023-01-25T09:15:33;24.83;;;15.53;;
9689;SDS011;4884;42.614;23.340;2023-01-25T09:17:59;21.37;;;14.30;;
9689;SDS011;4884;42.614;23.340;2023-01-25T09:20:24;23.63;;;16.07;;
9689;SDS011;4884;42.614;23.340;2023-01-25T09:22:50;21.47;;;15.70;;
9689;SDS011;4884;42.614;23.340;2023-01-25T09:25:15;22.33;;;14.40;;
9689;SDS011;4884;42.614;23.340;2023-01-25T09:27:40;19.17;;;13.80;;
9689;SDS011;4884;42.614;23.340;2023-01-25T09:30:07;20.87;;;14.87;;
9689;SDS011;4884;42.614;23.340;2023-01-25T09:32:33;19.90;;;15.50;;
9689;SDS011;4884;42.614;23.340;2023-01-25T09:34:58;20.63;;;14.50;;
9689;SDS011;4884;42.614;23.340;2023-01-25T09:37:24;23.67;;;16.00;;
9689;SDS011;4884;42.614;23.340;2023-01-25T09:39:49;23.23;;;16.07;;
9689;SDS011;4884;42.614;23.340;2023-01-25T09:50:34;19.47;;;14.70;;
9689;SDS011;4884;42.614;23.340;2023-01-25T09:55:40;22.00;;;15.40;;
9689;SDS011;4884;42.614;23.340;2023-01-25T09:58:10;23.17;;;15.40;;
9689;SDS011;4884;42.614;23.340;2023-01-25T10:00:40;26.13;;;18.13;;
9689;SDS011;4884;42.614;23.340;2023-01-25T10:03:20;25.23;;;17.27;;
9689;SDS011;4884;42.614;23.340;2023-01-25T10:05:49;20.27;;;14.90;;
9689;SDS011;4884;42.614;23.340;2023-01-25T10:11:13;19.90;;;15.17;;
9689;SDS011;4884;42.614;23.340;2023-01-25T10:13:44;21.40;;;15.77;;
9689;SDS011;4884;42.614;23.340;2023-01-25T10:16:14;22.93;;;18.07;;
9689;SDS011;4884;42.614;23.340;2023-01-25T10:21:28;19.83;;;14.77;;
9689;SDS011;4884;42.614;23.340;2023-01-25T10:24:04;17.63;;;13.57;;
9689;SDS011;4884;42.614;23.340;2023-01-25T10:26:44;20.20;;;14.50;;
9689;SDS011;4884;42.614;23.340;2023-01-25T10:29:16;17.33;;;12.60;;
9689;SDS011;4884;42.614;23.340;2023-01-25T10:34:20;15.57;;;12.67;;
9689;SDS011;4884;42.614;23.340;2023-01-25T10:36:48;17.67;;;13.50;;
9689;SDS011;4884;42.614;23.340;2023-01-25T10:39:16;16.50;;;12.93;;
9689;SDS011;4884;42.614;23.340;2023-01-25T10:42:04;15.67;;;11.80;;
9689;SDS011;4884;42.614;23.340;2023-01-25T10:44:31;15.03;;;12.03;;
9689;SDS011;4884;42.614;23.340;2023-01-25T10:47:03;14.40;;;12.63;;
9689;SDS011;4884;42.614;23.340;2023-01-25T10:52:16;13.87;;;11.47;;
9689;SDS011;4884;42.614;23.340;2023-01-25T10:54:47;20.33;;;14.13;;
9689;SDS011;4884;42.614;23.340;2023-01-25T10:57:17;16.63;;;14.50;;
9689;SDS011;4884;42.614;23.340;2023-01-25T10:59:44;15.30;;;13.23;;
9689;SDS011;4884;42.614;23.340;2023-01-25T11:02:31;17.60;;;13.33;;
9689;SDS011;4884;42.614;23.340;2023-01-25T11:07:57;16.57;;;12.17;;
9689;SDS011;4884;42.614;23.340;2023-01-25T11:10:30;16.73;;;11.27;;
9689;SDS011;4884;42.614;23.340;2023-01-25T11:15:51;12.00;;;9.87;;
9689;SDS011;4884;42.614;23.340;2023-01-25T11:18:25;14.40;;;9.80;;
9689;SDS011;4884;42.614;23.340;2023-01-25T11:23:39;15.93;;;12.73;;
9689;SDS011;4884;42.614;23.340;2023-01-25T11:26:17;14.00;;;12.53;;
9689;SDS011;4884;42.614;23.340;2023-01-25T11:28:44;12.70;;;10.07;;
9689;SDS011;4884;42.614;23.340;2023-01-25T11:31:11;10.57;;;9.23;;
9689;SDS011;4884;42.614;23.340;2023-01-25T11:33:38;10.47;;;8.93;;
9689;SDS011;4884;42.614;23.340;2023-01-25T11:44:33;14.57;;;10.80;;
9689;SDS011;4884;42.614;23.340;2023-01-25T11:55:39;10.90;;;7.80;;
9689;SDS011;4884;42.614;23.340;2023-01-25T12:07:01;9.60;;;8.67;;
9689;SDS011;4884;42.614;23.340;2023-01-25T12:23:05;14.10;;;9.83;;
9689;SDS011;4884;42.614;23.340;2023-01-25T12:33:39;12.50;;;9.20;;
9689;SDS011;4884;42.614;23.340;2023-01-25T12:36:12;14.40;;;12.57;;
9689;SDS011;4884;42.614;23.340;2023-01-25T12:38:43;9.47;;;7.57;;
9689;SDS011;4884;42.614;23.340;2023-01-25T12:41:19;7.77;;;6.87;;
9689;SDS011;4884;42.614;23.340;2023-01-25T12:49:22;12.33;;;10.07;;
9689;SDS011;4884;42.614;23.340;2023-01-25T12:51:52;13.47;;;9.30;;
9689;SDS011;4884;42.614;23.340;2023-01-25T12:54:23;11.57;;;9.17;;
9689;SDS011;4884;42.614;23.340;2023-01-25T12:57:05;14.00;;;11.27;;
9689;SDS011;4884;42.614;23.340;2023-01-25T12:59:39;13.03;;;11.60;;
9689;SDS011;4884;42.614;23.340;2023-01-25T13:08:34;7.90;;;7.00;;
9689;SDS011;4884;42.614;23.340;2023-01-25T13:10:47;7.93;;;7.13;;
9689;SDS011;4884;42.614;23.340;2023-01-25T13:15:50;13.50;;;10.03;;
9689;SDS011;4884;42.614;23.340;2023-01-25T13:20:52;11.10;;;8.67;;
9689;SDS011;4884;42.614;23.340;2023-01-25T13:23:40;13.33;;;9.13;;
9689;SDS011;4884;42.614;23.340;2023-01-25T13:34:05;9.63;;;8.27;;
9689;SDS011;4884;42.614;23.340;2023-01-25T13:36:36;13.10;;;9.00;;
9689;SDS011;4884;42.614;23.340;2023-01-25T13:42:02;9.80;;;6.93;;
9689;SDS011;4884;42.614;23.340;2023-01-25T13:44:30;8.53;;;7.13;;
9689;SDS011;4884;42.614;23.340;2023-01-25T13:46:57;11.43;;;8.10;;
9689;SDS011;4884;42.614;23.340;2023-01-25T13:52:22;9.27;;;8.23;;
9689;SDS011;4884;42.614;23.340;2023-01-25T13:54:48;9.33;;;7.37;;
9689;SDS011;4884;42.614;23.340;2023-01-25T13:57:22;11.87;;;8.73;;
9689;SDS011;4884;42.614;23.340;2023-01-25T14:00:06;10.53;;;7.97;;
9689;SDS011;4884;42.614;23.340;2023-01-25T14:02:37;11.80;;;8.87;;
9689;SDS011;4884;42.614;23.340;2023-01-25T14:05:03;11.50;;;9.40;;
9689;SDS011;4884;42.614;23.340;2023-01-25T14:07:30;11.30;;;9.97;;
9689;SDS011;4884;42.614;23.340;2023-01-25T14:09:59;12.47;;;9.93;;
9689;SDS011;4884;42.614;23.340;2023-01-25T14:17:43;63.50;;;46.13;;
9689;SDS011;4884;42.614;23.340;2023-01-25T14:20:21;20.80;;;16.80;;
9689;SDS011;4884;42.614;23.340;2023-01-25T14:22:49;15.47;;;13.27;;
9689;SDS011;4884;42.614;23.340;2023-01-25T14:27:51;13.87;;;12.30;;
9689;SDS011;4884;42.614;23.340;2023-01-25T14:30:24;15.63;;;12.60;;
9689;SDS011;4884;42.614;23.340;2023-01-25T14:32:52;19.73;;;13.53;;
9689;SDS011;4884;42.614;23.340;2023-01-25T14:37:53;23.00;;;15.73;;
9689;SDS011;4884;42.614;23.340;2023-01-25T14:40:22;17.40;;;14.07;;
9689;SDS011;4884;42.614;23.340;2023-01-25T14:42:49;20.10;;;15.60;;
9689;SDS011;4884;42.614;23.340;2023-01-25T14:45:15;17.37;;;13.90;;
9689;SDS011;4884;42.614;23.340;2023-01-25T14:47:41;11.33;;;10.13;;
9689;SDS011;4884;42.614;23.340;2023-01-25T14:53:19;14.80;;;10.07;;
9689;SDS011;4884;42.614;23.340;2023-01-25T14:55:46;15.23;;;11.40;;
9689;SDS011;4884;42.614;23.340;2023-01-25T14:58:16;11.57;;;9.43;;
9689;SDS011;4884;42.614;23.340;2023-01-25T15:00:50;13.17;;;9.70;;
9689;SDS011;4884;42.614;23.340;2023-01-25T15:03:17;10.40;;;8.87;;
9689;SDS011;4884;42.614;23.340;2023-01-25T15:05:45;9.77;;;7.63;;
9689;SDS011;4884;42.614;23.340;2023-01-25T15:10:37;16.67;;;9.07;;
9689;SDS011;4884;42.614;23.340;2023-01-25T15:13:43;12.10;;;8.23;;
9689;SDS011;4884;42.614;23.340;2023-01-25T15:16:08;13.73;;;8.23;;
9689;SDS011;4884;42.614;23.340;2023-01-25T15:21:07;14.27;;;10.13;;
9689;SDS011;4884;42.614;23.340;2023-01-25T15:23:34;11.60;;;8.97;;
9689;SDS011;4884;42.614;23.340;2023-01-25T15:25:59;14.63;;;11.23;;
9689;SDS011;4884;42.614;23.340;2023-01-25T15:28:26;18.07;;;14.67;;
9689;SDS011;4884;42.614;23.340;2023-01-25T15:30:53;14.17;;;11.20;;
9689;SDS011;4884;42.614;23.340;2023-01-25T15:33:22;14.33;;;9.20;;
9689;SDS011;4884;42.614;23.340;2023-01-25T15:35:50;15.40;;;11.70;;
9689;SDS011;4884;42.614;23.340;2023-01-25T15:38:16;15.93;;;11.97;;
9689;SDS011;4884;42.614;23.340;2023-01-25T15:40:42;18.03;;;11.37;;
9689;SDS011;4884;42.614;23.340;2023-01-25T15:43:11;19.57;;;13.30;;
9689;SDS011;4884;42.614;23.340;2023-01-25T15:45:38;21.07;;;13.17;;
9689;SDS011;4884;42.614;23.340;2023-01-25T15:48:04;18.30;;;11.97;;
9689;SDS011;4884;42.614;23.340;2023-01-25T15:50:30;25.83;;;13.60;;
9689;SDS011;4884;42.614;23.340;2023-01-25T15:52:55;17.63;;;12.87;;
9689;SDS011;4884;42.614;23.340;2023-01-25T15:55:21;19.13;;;12.67;;
9689;SDS011;4884;42.614;23.340;2023-01-25T15:57:47;17.70;;;12.07;;
9689;SDS011;4884;42.614;23.340;2023-01-25T16:00:14;21.10;;;13.20;;
9689;SDS011;4884;42.614;23.340;2023-01-25T16:02:40;17.67;;;11.80;;
9689;SDS011;4884;42.614;23.340;2023-01-25T16:05:06;16.80;;;11.60;;
9689;SDS011;4884;42.614;23.340;2023-01-25T16:07:31;16.60;;;11.93;;
9689;SDS011;4884;42.614;23.340;2023-01-25T16:09:57;17.77;;;11.57;;
9689;SDS011;4884;42.614;23.340;2023-01-25T16:12:23;14.93;;;9.97;;
9689;SDS011;4884;42.614;23.340;2023-01-25T16:14:49;14.57;;;9.40;;
9689;SDS011;4884;42.614;23.340;2023-01-25T16:17:18;17.63;;;10.50;;
9689;SDS011;4884;42.614;23.340;2023-01-25T16:19:45;15.57;;;10.60;;
9689;SDS011;4884;42.614;23.340;2023-01-25T16:22:15;20.83;;;14.10;;
9689;SDS011;4884;42.614;23.340;2023-01-25T16:24:42;19.63;;;12.13;;
9689;SDS011;4884;42.614;23.340;2023-01-25T16:27:15;16.17;;;10.10;;
9689;SDS011;4884;42.614;23.340;2023-01-25T16:29:45;17.73;;;10.03;;
9689;SDS011;4884;42.614;23.340;2023-01-25T16:32:11;16.93;;;11.33;;
9689;SDS011;4884;42.614;23.340;2023-01-25T16:34:36;18.47;;;11.93;;
9689;SDS011;4884;42.614;23.340;2023-01-25T16:37:02;19.17;;;12.03;;
9689;SDS011;4884;42.614;23.340;2023-01-25T16:39:27;19.67;;;12.20;;
9689;SDS011;4884;42.614;23.340;2023-01-25T16:41:53;16.70;;;11.67;;
9689;SDS011;4884;42.614;23.340;2023-01-25T16:44:19;15.20;;;9.87;;
9689;SDS011;4884;42.614;23.340;2023-01-25T16:46:44;21.23;;;13.20;;
9689;SDS011;4884;42.614;23.340;2023-01-25T16:49:21;20.17;;;11.63;;
9689;SDS011;4884;42.614;23.340;2023-01-25T16:51:50;19.83;;;13.03;;
9689;SDS011;4884;42.614;23.340;2023-01-25T16:54:16;21.37;;;14.57;;
9689;SDS011;4884;42.614;23.340;2023-01-25T16:56:43;24.63;;;15.63;;
9689;SDS011;4884;42.614;23.340;2023-01-25T16:59:09;24.93;;;16.90;;
9689;SDS011;4884;42.614;23.340;2023-01-25T17:01:35;24.33;;;13.93;;
9689;SDS011;4884;42.614;23.340;2023-01-25T17:04:04;24.17;;;14.57;;
9689;SDS011;4884;42.614;23.340;2023-01-25T17:06:31;24.53;;;14.37;;